Aeroporto :
LOGIN :

Iscrizione | Disclaimer

   EN    FR    IT 

 










Sommario :    VFR   VFR Marginale   IFR   IFR Intensivo   IFR Molto Intensivo
Visibilità : 
Base nubi : 
>= 8 km
>= 3000ft
5 / 8 km
1000 / 3000 ft
1500m / 5 km
500 / 1000 ft
800 / 1500m
200 / 500 ft
< 800m
< 200 ft
Simboli :   Temporali  Nebbia  Neve Forte  Precipitazioni Forti  Vento > 20 kt
SIGMETs :   Varie  Temporali  Ghiacco  Turbolenza  Onda orograficha  Ceneri Vulcaniche







- Altitudine del aeroporto : 235 ft
- Codice IATA : BZG


EPBY - Bydgoszcz

ULTIMO METAR :
  • 261800Z 31008KT CAVOK 02/M03 Q1020

METARs OBSOLETI :
  • 261730Z 34007KT CAVOK 03/M03 Q1019
  • 261700Z 02009KT 340V050 CAVOK 03/M03 Q1019
  • 261630Z 35016KT 320V030 CAVOK 05/M04 Q1018
  • 261600Z 33016G26KT CAVOK 05/M05 Q1017
  • 261530Z 32012KT 9999 SCT044 05/M01 Q1017

TAF TAF EPBY
Valido dal 26 a 18 ore il 27 a 18 ore UTC


261730Z 2618/2718 35010KT CAVOK
BECMG 2619/2622 28006KT
BECMG 2712/2715 BKN012
BECMG 2715/2718 BKN006
Nessun NOTAM noto per questo aeroporto.



MetMap, La meteo Aeronautica in un colpo d'occhio ! - Copyright ORBIFLY Dicembre 2007 - Disclaimer

ORBIFLY MET'MAP TEAM :

Programmazione e sviluppo : Alexandra Zaïnal
Concezione e sviluppo : Baudouin d'Aumeries
Co-Programmazione e sviluppo : Marc-Olivier Méhu
Supporto tecnico e logistico : Manuel Goepfert
Aiuto per la traduzione : Arnaldo La Scala

Contatto : metmap@orbifly.com




FONTI E CREDITI :

   NOAA